sensor_id;sensor_type;location;lat;lon;timestamp;temperature;humidity
13332;DHT22;6735;51.456;12.626;2022-10-31T00:00:29;11.40;87.30
13332;DHT22;6735;51.456;12.626;2022-10-31T00:02:54;11.40;87.30
13332;DHT22;6735;51.456;12.626;2022-10-31T00:05:20;11.40;87.40
13332;DHT22;6735;51.456;12.626;2022-10-31T00:07:45;11.40;87.40
13332;DHT22;6735;51.456;12.626;2022-10-31T00:10:11;11.40;87.50
13332;DHT22;6735;51.456;12.626;2022-10-31T00:12:37;11.30;87.40
13332;DHT22;6735;51.456;12.626;2022-10-31T00:15:02;11.30;87.40
13332;DHT22;6735;51.456;12.626;2022-10-31T00:17:28;11.30;87.40
13332;DHT22;6735;51.456;12.626;2022-10-31T00:19:54;11.30;87.40
13332;DHT22;6735;51.456;12.626;2022-10-31T00:22:19;11.30;87.30
13332;DHT22;6735;51.456;12.626;2022-10-31T00:24:45;11.20;87.30
13332;DHT22;6735;51.456;12.626;2022-10-31T00:27:10;11.20;87.30
13332;DHT22;6735;51.456;12.626;2022-10-31T00:29:36;11.20;87.30
13332;DHT22;6735;51.456;12.626;2022-10-31T00:32:01;11.20;87.30
13332;DHT22;6735;51.456;12.626;2022-10-31T00:34:27;11.10;87.20
13332;DHT22;6735;51.456;12.626;2022-10-31T00:36:52;11.10;87.30
13332;DHT22;6735;51.456;12.626;2022-10-31T00:39:18;11.10;87.30
13332;DHT22;6735;51.456;12.626;2022-10-31T00:41:43;11.10;87.40
13332;DHT22;6735;51.456;12.626;2022-10-31T00:44:09;11.10;87.40
13332;DHT22;6735;51.456;12.626;2022-10-31T00:46:34;11.10;87.40
13332;DHT22;6735;51.456;12.626;2022-10-31T00:49:00;11.10;87.40
13332;DHT22;6735;51.456;12.626;2022-10-31T00:51:25;11.10;87.40
13332;DHT22;6735;51.456;12.626;2022-10-31T00:53:51;11.00;87.40
13332;DHT22;6735;51.456;12.626;2022-10-31T00:56:16;11.00;87.40
13332;DHT22;6735;51.456;12.626;2022-10-31T00:58:42;11.00;87.50
13332;DHT22;6735;51.456;12.626;2022-10-31T01:01:07;10.90;87.40
13332;DHT22;6735;51.456;12.626;2022-10-31T01:03:33;11.00;87.50
13332;DHT22;6735;51.456;12.626;2022-10-31T01:06:06;10.90;87.40
13332;DHT22;6735;51.456;12.626;2022-10-31T01:08:32;10.90;87.40
13332;DHT22;6735;51.456;12.626;2022-10-31T01:11:00;10.90;87.60
13332;DHT22;6735;51.456;12.626;2022-10-31T01:13:26;10.90;87.70
13332;DHT22;6735;51.456;12.626;2022-10-31T01:15:56;10.90;87.60
13332;DHT22;6735;51.456;12.626;2022-10-31T01:18:22;10.90;87.70
13332;DHT22;6735;51.456;12.626;2022-10-31T01:21:00;10.90;87.70
13332;DHT22;6735;51.456;12.626;2022-10-31T01:23:26;10.80;87.60
13332;DHT22;6735;51.456;12.626;2022-10-31T01:28:33;10.80;87.60
13332;DHT22;6735;51.456;12.626;2022-10-31T01:31:04;10.80;87.70
13332;DHT22;6735;51.456;12.626;2022-10-31T01:33:30;10.80;87.70
13332;DHT22;6735;51.456;12.626;2022-10-31T01:35:56;10.80;87.70
13332;DHT22;6735;51.456;12.626;2022-10-31T01:38:22;10.70;87.70
13332;DHT22;6735;51.456;12.626;2022-10-31T01:40:48;10.70;87.80
13332;DHT22;6735;51.456;12.626;2022-10-31T01:43:14;10.70;87.80
13332;DHT22;6735;51.456;12.626;2022-10-31T01:45:41;10.70;87.80
13332;DHT22;6735;51.456;12.626;2022-10-31T01:48:13;10.70;87.70
13332;DHT22;6735;51.456;12.626;2022-10-31T01:50:40;10.70;87.80
13332;DHT22;6735;51.456;12.626;2022-10-31T01:53:08;10.70;87.90
13332;DHT22;6735;51.456;12.626;2022-10-31T01:55:38;10.70;87.80
13332;DHT22;6735;51.456;12.626;2022-10-31T01:58:08;10.70;87.80
13332;DHT22;6735;51.456;12.626;2022-10-31T02:00:35;10.70;87.90
13332;DHT22;6735;51.456;12.626;2022-10-31T02:03:01;10.70;87.90
13332;DHT22;6735;51.456;12.626;2022-10-31T02:05:29;10.70;87.90
13332;DHT22;6735;51.456;12.626;2022-10-31T02:08:12;10.60;87.90
13332;DHT22;6735;51.456;12.626;2022-10-31T02:10:40;10.70;87.90
13332;DHT22;6735;51.456;12.626;2022-10-31T02:13:08;10.60;87.90
13332;DHT22;6735;51.456;12.626;2022-10-31T02:15:35;10.60;88.00
13332;DHT22;6735;51.456;12.626;2022-10-31T02:18:01;10.60;88.00
13332;DHT22;6735;51.456;12.626;2022-10-31T02:31:33;10.60;88.10
13332;DHT22;6735;51.456;12.626;2022-10-31T02:34:21;10.60;88.10
13332;DHT22;6735;51.456;12.626;2022-10-31T02:36:56;10.60;88.10
13332;DHT22;6735;51.456;12.626;2022-10-31T02:39:26;10.60;88.10
13332;DHT22;6735;51.456;12.626;2022-10-31T02:42:09;10.60;88.10
13332;DHT22;6735;51.456;12.626;2022-10-31T02:45:05;10.60;88.10
13332;DHT22;6735;51.456;12.626;2022-10-31T02:47:35;10.60;88.00
13332;DHT22;6735;51.456;12.626;2022-10-31T02:50:09;10.50;88.00
13332;DHT22;6735;51.456;12.626;2022-10-31T02:52:36;10.50;88.10
13332;DHT22;6735;51.456;12.626;2022-10-31T02:57:47;10.60;88.20
13332;DHT22;6735;51.456;12.626;2022-10-31T03:00:13;10.50;88.20
13332;DHT22;6735;51.456;12.626;2022-10-31T03:02:57;10.50;88.20
13332;DHT22;6735;51.456;12.626;2022-10-31T03:08:23;10.50;88.20
13332;DHT22;6735;51.456;12.626;2022-10-31T03:10:58;10.50;88.20
13332;DHT22;6735;51.456;12.626;2022-10-31T03:13:51;10.50;88.20
13332;DHT22;6735;51.456;12.626;2022-10-31T03:16:47;10.50;88.20
13332;DHT22;6735;51.456;12.626;2022-10-31T03:19:33;10.50;88.20
13332;DHT22;6735;51.456;12.626;2022-10-31T03:22:15;10.50;88.20
13332;DHT22;6735;51.456;12.626;2022-10-31T03:24:41;10.50;88.20
13332;DHT22;6735;51.456;12.626;2022-10-31T03:27:10;10.50;88.20
13332;DHT22;6735;51.456;12.626;2022-10-31T03:29:37;10.50;88.20
13332;DHT22;6735;51.456;12.626;2022-10-31T03:34:39;10.50;88.20
13332;DHT22;6735;51.456;12.626;2022-10-31T03:37:08;10.50;88.10
13332;DHT22;6735;51.456;12.626;2022-10-31T03:39:37;10.40;88.10
13332;DHT22;6735;51.456;12.626;2022-10-31T03:42:25;10.40;88.10
13332;DHT22;6735;51.456;12.626;2022-10-31T03:45:06;10.40;88.10
13332;DHT22;6735;51.456;12.626;2022-10-31T03:47:33;10.40;88.10
13332;DHT22;6735;51.456;12.626;2022-10-31T03:50:00;10.40;88.20
13332;DHT22;6735;51.456;12.626;2022-10-31T03:55:16;10.30;88.20
13332;DHT22;6735;51.456;12.626;2022-10-31T03:57:59;10.30;88.20
13332;DHT22;6735;51.456;12.626;2022-10-31T04:00:27;10.30;88.10
13332;DHT22;6735;51.456;12.626;2022-10-31T04:03:04;10.30;88.20
13332;DHT22;6735;51.456;12.626;2022-10-31T04:05:32;10.30;88.20
13332;DHT22;6735;51.456;12.626;2022-10-31T04:07:58;10.20;88.10
13332;DHT22;6735;51.456;12.626;2022-10-31T04:10:26;10.20;88.20
13332;DHT22;6735;51.456;12.626;2022-10-31T04:12:58;10.20;88.10
13332;DHT22;6735;51.456;12.626;2022-10-31T04:15:26;10.20;88.00
13332;DHT22;6735;51.456;12.626;2022-10-31T04:17:55;10.20;88.10
13332;DHT22;6735;51.456;12.626;2022-10-31T04:20:33;10.20;88.20
13332;DHT22;6735;51.456;12.626;2022-10-31T04:22:59;10.10;88.30
13332;DHT22;6735;51.456;12.626;2022-10-31T04:25:25;10.10;88.30
13332;DHT22;6735;51.456;12.626;2022-10-31T04:27:50;10.10;88.40
13332;DHT22;6735;51.456;12.626;2022-10-31T04:30:16;10.00;88.40
13332;DHT22;6735;51.456;12.626;2022-10-31T04:32:42;10.00;88.50
13332;DHT22;6735;51.456;12.626;2022-10-31T04:35:07;10.00;88.50
13332;DHT22;6735;51.456;12.626;2022-10-31T04:37:33;9.90;88.50
13332;DHT22;6735;51.456;12.626;2022-10-31T04:39:59;9.90;88.40
13332;DHT22;6735;51.456;12.626;2022-10-31T04:42:24;9.90;88.50
13332;DHT22;6735;51.456;12.626;2022-10-31T04:44:50;9.80;88.40
13332;DHT22;6735;51.456;12.626;2022-10-31T04:47:15;9.80;88.50
13332;DHT22;6735;51.456;12.626;2022-10-31T04:49:41;9.80;88.50
13332;DHT22;6735;51.456;12.626;2022-10-31T04:52:06;9.80;88.50
13332;DHT22;6735;51.456;12.626;2022-10-31T04:54:33;9.80;88.90
13332;DHT22;6735;51.456;12.626;2022-10-31T04:56:59;9.80;88.80
13332;DHT22;6735;51.456;12.626;2022-10-31T04:59:24;9.80;88.70
13332;DHT22;6735;51.456;12.626;2022-10-31T05:01:50;9.70;88.60
13332;DHT22;6735;51.456;12.626;2022-10-31T05:04:15;9.80;88.60
13332;DHT22;6735;51.456;12.626;2022-10-31T05:06:41;9.70;88.60
13332;DHT22;6735;51.456;12.626;2022-10-31T05:09:06;9.70;88.60
13332;DHT22;6735;51.456;12.626;2022-10-31T05:11:32;9.80;88.40
13332;DHT22;6735;51.456;12.626;2022-10-31T05:13:57;9.70;88.50
13332;DHT22;6735;51.456;12.626;2022-10-31T05:16:23;9.70;88.40
13332;DHT22;6735;51.456;12.626;2022-10-31T05:18:48;9.70;88.50
13332;DHT22;6735;51.456;12.626;2022-10-31T05:21:14;9.60;88.50
13332;DHT22;6735;51.456;12.626;2022-10-31T05:23:39;9.60;88.60
13332;DHT22;6735;51.456;12.626;2022-10-31T05:26:05;9.60;88.60
13332;DHT22;6735;51.456;12.626;2022-10-31T05:28:31;9.60;88.60
13332;DHT22;6735;51.456;12.626;2022-10-31T05:30:56;9.50;88.60
13332;DHT22;6735;51.456;12.626;2022-10-31T05:33:22;9.50;88.60
13332;DHT22;6735;51.456;12.626;2022-10-31T05:35:47;9.50;88.60
13332;DHT22;6735;51.456;12.626;2022-10-31T05:38:13;9.50;88.70
13332;DHT22;6735;51.456;12.626;2022-10-31T05:40:38;9.50;88.70
13332;DHT22;6735;51.456;12.626;2022-10-31T05:43:04;9.40;88.70
13332;DHT22;6735;51.456;12.626;2022-10-31T05:45:30;9.40;88.70
13332;DHT22;6735;51.456;12.626;2022-10-31T05:47:59;9.40;88.70
13332;DHT22;6735;51.456;12.626;2022-10-31T05:50:27;9.40;88.70
13332;DHT22;6735;51.456;12.626;2022-10-31T05:52:57;9.40;88.70
13332;DHT22;6735;51.456;12.626;2022-10-31T05:55:23;9.30;88.70
13332;DHT22;6735;51.456;12.626;2022-10-31T05:57:48;9.40;88.70
13332;DHT22;6735;51.456;12.626;2022-10-31T06:00:14;9.30;88.70
13332;DHT22;6735;51.456;12.626;2022-10-31T06:02:40;9.40;88.70
13332;DHT22;6735;51.456;12.626;2022-10-31T06:05:05;9.40;88.70
13332;DHT22;6735;51.456;12.626;2022-10-31T06:07:35;9.40;88.70
13332;DHT22;6735;51.456;12.626;2022-10-31T06:10:02;9.40;88.70
13332;DHT22;6735;51.456;12.626;2022-10-31T06:12:28;9.40;88.70
13332;DHT22;6735;51.456;12.626;2022-10-31T06:14:53;9.40;88.70
13332;DHT22;6735;51.456;12.626;2022-10-31T06:17:19;9.40;88.60
13332;DHT22;6735;51.456;12.626;2022-10-31T06:19:45;9.40;88.60
13332;DHT22;6735;51.456;12.626;2022-10-31T06:22:10;9.40;88.60
13332;DHT22;6735;51.456;12.626;2022-10-31T06:24:39;9.40;88.60
13332;DHT22;6735;51.456;12.626;2022-10-31T06:27:05;9.50;88.70
13332;DHT22;6735;51.456;12.626;2022-10-31T06:29:31;9.50;88.70
13332;DHT22;6735;51.456;12.626;2022-10-31T06:31:56;9.60;88.80
13332;DHT22;6735;51.456;12.626;2022-10-31T06:34:22;9.60;88.80
13332;DHT22;6735;51.456;12.626;2022-10-31T06:36:48;9.70;88.80
13332;DHT22;6735;51.456;12.626;2022-10-31T06:39:14;9.70;88.80
13332;DHT22;6735;51.456;12.626;2022-10-31T06:41:39;9.70;88.80
13332;DHT22;6735;51.456;12.626;2022-10-31T06:44:07;9.80;88.90
13332;DHT22;6735;51.456;12.626;2022-10-31T06:46:32;9.80;88.90
13332;DHT22;6735;51.456;12.626;2022-10-31T06:48:58;9.90;88.90
13332;DHT22;6735;51.456;12.626;2022-10-31T06:51:24;9.90;88.90
13332;DHT22;6735;51.456;12.626;2022-10-31T06:53:49;10.00;88.90
13332;DHT22;6735;51.456;12.626;2022-10-31T06:56:15;10.10;88.90
13332;DHT22;6735;51.456;12.626;2022-10-31T06:58:40;10.10;88.90
13332;DHT22;6735;51.456;12.626;2022-10-31T07:01:06;10.20;88.90
13332;DHT22;6735;51.456;12.626;2022-10-31T07:03:31;10.20;88.90
13332;DHT22;6735;51.456;12.626;2022-10-31T07:05:57;10.30;89.00
13332;DHT22;6735;51.456;12.626;2022-10-31T07:08:23;10.40;88.90
13332;DHT22;6735;51.456;12.626;2022-10-31T07:10:54;10.50;88.80
13332;DHT22;6735;51.456;12.626;2022-10-31T07:13:20;10.60;88.80
13332;DHT22;6735;51.456;12.626;2022-10-31T07:15:58;10.60;88.80
13332;DHT22;6735;51.456;12.626;2022-10-31T07:18:24;10.70;88.80
13332;DHT22;6735;51.456;12.626;2022-10-31T07:20:51;10.90;88.80
13332;DHT22;6735;51.456;12.626;2022-10-31T07:23:17;11.00;88.80
13332;DHT22;6735;51.456;12.626;2022-10-31T07:25:42;11.20;88.80
13332;DHT22;6735;51.456;12.626;2022-10-31T07:28:08;11.60;88.80
13332;DHT22;6735;51.456;12.626;2022-10-31T07:30:34;12.00;89.20
13332;DHT22;6735;51.456;12.626;2022-10-31T07:33:00;12.40;88.70
13332;DHT22;6735;51.456;12.626;2022-10-31T07:35:27;12.80;88.10
13332;DHT22;6735;51.456;12.626;2022-10-31T07:37:53;13.20;87.30
13332;DHT22;6735;51.456;12.626;2022-10-31T07:40:20;13.60;86.80
13332;DHT22;6735;51.456;12.626;2022-10-31T07:42:48;13.90;85.80
13332;DHT22;6735;51.456;12.626;2022-10-31T07:45:19;14.30;85.10
13332;DHT22;6735;51.456;12.626;2022-10-31T07:47:49;14.70;85.40
13332;DHT22;6735;51.456;12.626;2022-10-31T07:50:35;14.90;84.20
13332;DHT22;6735;51.456;12.626;2022-10-31T07:53:06;15.10;83.60
13332;DHT22;6735;51.456;12.626;2022-10-31T07:55:32;15.20;83.60
13332;DHT22;6735;51.456;12.626;2022-10-31T07:58:06;15.30;83.00
13332;DHT22;6735;51.456;12.626;2022-10-31T08:00:33;15.40;83.20
13332;DHT22;6735;51.456;12.626;2022-10-31T08:03:13;15.40;82.50
13332;DHT22;6735;51.456;12.626;2022-10-31T08:05:40;15.30;83.20
13332;DHT22;6735;51.456;12.626;2022-10-31T08:08:11;15.30;82.80
13332;DHT22;6735;51.456;12.626;2022-10-31T08:10:37;15.30;82.40
13332;DHT22;6735;51.456;12.626;2022-10-31T08:13:06;15.30;82.90
13332;DHT22;6735;51.456;12.626;2022-10-31T08:15:33;15.30;82.70
13332;DHT22;6735;51.456;12.626;2022-10-31T08:18:02;15.30;82.60
13332;DHT22;6735;51.456;12.626;2022-10-31T08:20:28;15.30;82.40
13332;DHT22;6735;51.456;12.626;2022-10-31T08:22:57;15.40;82.10
13332;DHT22;6735;51.456;12.626;2022-10-31T08:25:25;15.40;82.30
13332;DHT22;6735;51.456;12.626;2022-10-31T08:27:52;15.40;81.80
13332;DHT22;6735;51.456;12.626;2022-10-31T08:30:19;15.50;82.20
13332;DHT22;6735;51.456;12.626;2022-10-31T08:32:46;15.50;81.70
13332;DHT22;6735;51.456;12.626;2022-10-31T08:35:11;15.50;81.50
13332;DHT22;6735;51.456;12.626;2022-10-31T08:37:37;15.50;81.20
13332;DHT22;6735;51.456;12.626;2022-10-31T08:40:03;15.60;81.50
13332;DHT22;6735;51.456;12.626;2022-10-31T08:42:28;15.70;81.40
13332;DHT22;6735;51.456;12.626;2022-10-31T08:44:54;15.70;80.90
13332;DHT22;6735;51.456;12.626;2022-10-31T08:47:19;15.70;80.80
13332;DHT22;6735;51.456;12.626;2022-10-31T08:49:45;15.90;80.70
13332;DHT22;6735;51.456;12.626;2022-10-31T08:52:10;16.00;80.60
13332;DHT22;6735;51.456;12.626;2022-10-31T08:54:36;16.10;80.40
13332;DHT22;6735;51.456;12.626;2022-10-31T08:57:01;16.30;80.70
13332;DHT22;6735;51.456;12.626;2022-10-31T08:59:27;16.60;80.00
13332;DHT22;6735;51.456;12.626;2022-10-31T09:01:52;16.80;79.80
13332;DHT22;6735;51.456;12.626;2022-10-31T09:04:18;17.00;78.80
13332;DHT22;6735;51.456;12.626;2022-10-31T09:06:43;17.10;78.70
13332;DHT22;6735;51.456;12.626;2022-10-31T09:09:09;17.20;78.60
13332;DHT22;6735;51.456;12.626;2022-10-31T09:11:34;17.30;78.50
13332;DHT22;6735;51.456;12.626;2022-10-31T09:14:00;17.50;78.30
13332;DHT22;6735;51.456;12.626;2022-10-31T09:16:26;17.70;78.30
13332;DHT22;6735;51.456;12.626;2022-10-31T09:18:51;17.80;77.80
13332;DHT22;6735;51.456;12.626;2022-10-31T09:21:17;17.80;77.30
13332;DHT22;6735;51.456;12.626;2022-10-31T09:23:42;17.70;77.10
13332;DHT22;6735;51.456;12.626;2022-10-31T09:26:08;17.70;77.30
13332;DHT22;6735;51.456;12.626;2022-10-31T09:28:34;17.70;77.40
13332;DHT22;6735;51.456;12.626;2022-10-31T09:30:59;17.60;77.20
13332;DHT22;6735;51.456;12.626;2022-10-31T09:33:25;17.50;77.30
13332;DHT22;6735;51.456;12.626;2022-10-31T09:35:50;17.30;77.60
13332;DHT22;6735;51.456;12.626;2022-10-31T09:38:18;17.20;77.90
13332;DHT22;6735;51.456;12.626;2022-10-31T09:40:57;17.20;78.20
13332;DHT22;6735;51.456;12.626;2022-10-31T09:46:26;17.10;78.10
13332;DHT22;6735;51.456;12.626;2022-10-31T09:51:55;17.10;78.20
13332;DHT22;6735;51.456;12.626;2022-10-31T09:56:56;17.00;78.90
13332;DHT22;6735;51.456;12.626;2022-10-31T09:59:35;16.90;78.90
13332;DHT22;6735;51.456;12.626;2022-10-31T10:02:05;16.90;78.90
13332;DHT22;6735;51.456;12.626;2022-10-31T10:07:14;16.70;79.20
13332;DHT22;6735;51.456;12.626;2022-10-31T10:09:42;16.60;79.40
13332;DHT22;6735;51.456;12.626;2022-10-31T10:12:28;16.60;79.80
13332;DHT22;6735;51.456;12.626;2022-10-31T10:15:30;16.60;80.10
13332;DHT22;6735;51.456;12.626;2022-10-31T10:20:53;16.60;80.30
13332;DHT22;6735;51.456;12.626;2022-10-31T10:23:42;16.60;80.20
13332;DHT22;6735;51.456;12.626;2022-10-31T10:28:40;16.60;80.30
13332;DHT22;6735;51.456;12.626;2022-10-31T10:31:16;16.70;80.40
13332;DHT22;6735;51.456;12.626;2022-10-31T10:37:00;16.70;80.30
13332;DHT22;6735;51.456;12.626;2022-10-31T10:39:35;16.80;80.20
13332;DHT22;6735;51.456;12.626;2022-10-31T10:42:10;16.80;80.10
13332;DHT22;6735;51.456;12.626;2022-10-31T10:44:55;16.80;80.20
13332;DHT22;6735;51.456;12.626;2022-10-31T10:47:44;16.90;80.40
13332;DHT22;6735;51.456;12.626;2022-10-31T10:50:17;16.90;80.30
13332;DHT22;6735;51.456;12.626;2022-10-31T10:52:49;16.90;80.30
13332;DHT22;6735;51.456;12.626;2022-10-31T10:55:35;17.00;80.20
13332;DHT22;6735;51.456;12.626;2022-10-31T10:58:09;17.00;80.10
13332;DHT22;6735;51.456;12.626;2022-10-31T11:03:09;17.00;80.10
13332;DHT22;6735;51.456;12.626;2022-10-31T11:05:58;17.10;80.30
13332;DHT22;6735;51.456;12.626;2022-10-31T11:08:29;17.00;80.20
13332;DHT22;6735;51.456;12.626;2022-10-31T11:13:24;17.10;80.10
13332;DHT22;6735;51.456;12.626;2022-10-31T11:16:04;17.10;80.00
13332;DHT22;6735;51.456;12.626;2022-10-31T11:18:46;17.10;80.00
13332;DHT22;6735;51.456;12.626;2022-10-31T11:21:29;17.10;80.10
13332;DHT22;6735;51.456;12.626;2022-10-31T11:24:03;17.20;80.00
13332;DHT22;6735;51.456;12.626;2022-10-31T11:26:28;17.20;79.90
13332;DHT22;6735;51.456;12.626;2022-10-31T11:28:57;17.20;79.90
13332;DHT22;6735;51.456;12.626;2022-10-31T11:31:24;17.30;80.00
13332;DHT22;6735;51.456;12.626;2022-10-31T11:34:00;17.30;80.00
13332;DHT22;6735;51.456;12.626;2022-10-31T11:36:29;17.40;80.00
13332;DHT22;6735;51.456;12.626;2022-10-31T11:38:55;17.40;79.80
13332;DHT22;6735;51.456;12.626;2022-10-31T11:43:57;17.40;79.60
13332;DHT22;6735;51.456;12.626;2022-10-31T11:46:39;17.50;79.60
13332;DHT22;6735;51.456;12.626;2022-10-31T11:49:14;17.50;79.60
13332;DHT22;6735;51.456;12.626;2022-10-31T11:51:40;17.50;79.60
13332;DHT22;6735;51.456;12.626;2022-10-31T11:54:38;17.60;79.60
13332;DHT22;6735;51.456;12.626;2022-10-31T11:57:04;17.70;79.40
13332;DHT22;6735;51.456;12.626;2022-10-31T11:59:31;17.70;79.20
13332;DHT22;6735;51.456;12.626;2022-10-31T12:01:59;17.70;79.10
13332;DHT22;6735;51.456;12.626;2022-10-31T12:04:41;17.70;79.40
13332;DHT22;6735;51.456;12.626;2022-10-31T12:07:08;17.80;79.40
13332;DHT22;6735;51.456;12.626;2022-10-31T12:09:35;17.80;79.50
13332;DHT22;6735;51.456;12.626;2022-10-31T12:26:26;18.00;79.00
13332;DHT22;6735;51.456;12.626;2022-10-31T12:34:45;18.10;78.90
13332;DHT22;6735;51.456;12.626;2022-10-31T12:43:23;18.20;78.60
13332;DHT22;6735;51.456;12.626;2022-10-31T12:45:56;18.20;78.40
13332;DHT22;6735;51.456;12.626;2022-10-31T12:59:24;18.30;78.30
13332;DHT22;6735;51.456;12.626;2022-10-31T13:02:09;18.30;78.50
13332;DHT22;6735;51.456;12.626;2022-10-31T13:04:55;18.40;78.50
13332;DHT22;6735;51.456;12.626;2022-10-31T13:07:28;18.50;78.30
13332;DHT22;6735;51.456;12.626;2022-10-31T13:10:05;18.50;78.30
13332;DHT22;6735;51.456;12.626;2022-10-31T13:12:33;18.60;78.30
13332;DHT22;6735;51.456;12.626;2022-10-31T13:15:15;18.60;78.20
13332;DHT22;6735;51.456;12.626;2022-10-31T13:17:48;18.60;78.10
13332;DHT22;6735;51.456;12.626;2022-10-31T13:20:25;18.60;78.00
13332;DHT22;6735;51.456;12.626;2022-10-31T13:23:16;18.60;77.90
13332;DHT22;6735;51.456;12.626;2022-10-31T13:25:47;18.60;77.80
13332;DHT22;6735;51.456;12.626;2022-10-31T13:28:33;18.60;78.00
13332;DHT22;6735;51.456;12.626;2022-10-31T13:30:59;18.60;78.10
13332;DHT22;6735;51.456;12.626;2022-10-31T13:33:34;18.60;78.00
13332;DHT22;6735;51.456;12.626;2022-10-31T13:36:14;18.60;78.20
13332;DHT22;6735;51.456;12.626;2022-10-31T13:38:54;18.50;78.30
13332;DHT22;6735;51.456;12.626;2022-10-31T13:41:30;18.50;78.40
13332;DHT22;6735;51.456;12.626;2022-10-31T13:44:05;18.40;78.60
13332;DHT22;6735;51.456;12.626;2022-10-31T13:48:59;18.40;78.80
13332;DHT22;6735;51.456;12.626;2022-10-31T13:51:28;18.30;78.90
13332;DHT22;6735;51.456;12.626;2022-10-31T13:56:29;18.20;79.20
13332;DHT22;6735;51.456;12.626;2022-10-31T13:59:15;18.20;79.00
13332;DHT22;6735;51.456;12.626;2022-10-31T14:01:59;18.20;79.20
13332;DHT22;6735;51.456;12.626;2022-10-31T14:04:43;18.20;79.20
13332;DHT22;6735;51.456;12.626;2022-10-31T14:07:15;18.20;79.30
13332;DHT22;6735;51.456;12.626;2022-10-31T14:09:54;18.20;79.40
13332;DHT22;6735;51.456;12.626;2022-10-31T14:12:39;18.20;79.40
13332;DHT22;6735;51.456;12.626;2022-10-31T14:15:23;18.20;79.50
13332;DHT22;6735;51.456;12.626;2022-10-31T14:17:51;18.10;79.70
13332;DHT22;6735;51.456;12.626;2022-10-31T14:22:43;18.10;80.00
13332;DHT22;6735;51.456;12.626;2022-10-31T14:25:28;18.00;80.10
13332;DHT22;6735;51.456;12.626;2022-10-31T14:27:55;17.90;80.20
13332;DHT22;6735;51.456;12.626;2022-10-31T14:30:23;17.90;80.30
13332;DHT22;6735;51.456;12.626;2022-10-31T14:32:55;17.90;80.40
13332;DHT22;6735;51.456;12.626;2022-10-31T14:35:26;17.90;80.60
13332;DHT22;6735;51.456;12.626;2022-10-31T14:41:21;17.80;80.90
13332;DHT22;6735;51.456;12.626;2022-10-31T14:44:16;17.70;81.10
13332;DHT22;6735;51.456;12.626;2022-10-31T14:52:13;17.50;81.50
13332;DHT22;6735;51.456;12.626;2022-10-31T14:54:49;17.40;81.80
13332;DHT22;6735;51.456;12.626;2022-10-31T14:57:26;17.30;81.90
13332;DHT22;6735;51.456;12.626;2022-10-31T14:59:57;17.30;82.20
13332;DHT22;6735;51.456;12.626;2022-10-31T15:02:52;17.20;82.20
13332;DHT22;6735;51.456;12.626;2022-10-31T15:05:20;17.10;82.30
13332;DHT22;6735;51.456;12.626;2022-10-31T15:07:56;17.10;82.60
13332;DHT22;6735;51.456;12.626;2022-10-31T15:10:26;17.10;82.60
13332;DHT22;6735;51.456;12.626;2022-10-31T15:12:52;17.00;82.50
13332;DHT22;6735;51.456;12.626;2022-10-31T15:15:23;16.90;82.70
13332;DHT22;6735;51.456;12.626;2022-10-31T15:17:53;16.80;83.00
13332;DHT22;6735;51.456;12.626;2022-10-31T15:20:25;16.70;83.20
13332;DHT22;6735;51.456;12.626;2022-10-31T15:22:51;16.60;83.40
13332;DHT22;6735;51.456;12.626;2022-10-31T15:25:20;16.60;83.40
13332;DHT22;6735;51.456;12.626;2022-10-31T15:27:50;16.50;83.60
13332;DHT22;6735;51.456;12.626;2022-10-31T15:30:24;16.40;83.90
13332;DHT22;6735;51.456;12.626;2022-10-31T15:32:50;16.40;83.90
13332;DHT22;6735;51.456;12.626;2022-10-31T15:35:24;16.30;84.00
13332;DHT22;6735;51.456;12.626;2022-10-31T15:37:54;16.20;84.20
13332;DHT22;6735;51.456;12.626;2022-10-31T15:40:22;16.20;84.40
13332;DHT22;6735;51.456;12.626;2022-10-31T15:43:04;16.20;84.40
13332;DHT22;6735;51.456;12.626;2022-10-31T15:45:30;16.10;84.40
13332;DHT22;6735;51.456;12.626;2022-10-31T15:47:58;16.10;84.50
13332;DHT22;6735;51.456;12.626;2022-10-31T15:50:32;16.00;84.50
13332;DHT22;6735;51.456;12.626;2022-10-31T15:53:00;15.90;84.70
13332;DHT22;6735;51.456;12.626;2022-10-31T15:55:29;15.80;85.00
13332;DHT22;6735;51.456;12.626;2022-10-31T15:58:01;15.80;85.20
13332;DHT22;6735;51.456;12.626;2022-10-31T16:00:32;15.70;85.10
13332;DHT22;6735;51.456;12.626;2022-10-31T16:03:26;15.70;85.40
13332;DHT22;6735;51.456;12.626;2022-10-31T16:06:03;15.70;85.20
13332;DHT22;6735;51.456;12.626;2022-10-31T16:13:31;15.40;85.70
13332;DHT22;6735;51.456;12.626;2022-10-31T16:16:00;15.50;85.30
13332;DHT22;6735;51.456;12.626;2022-10-31T16:18:28;15.50;85.50
13332;DHT22;6735;51.456;12.626;2022-10-31T16:20:55;15.30;85.90
13332;DHT22;6735;51.456;12.626;2022-10-31T16:23:24;15.30;86.50
13332;DHT22;6735;51.456;12.626;2022-10-31T16:25:50;15.30;85.90
13332;DHT22;6735;51.456;12.626;2022-10-31T16:28:22;15.30;86.40
13332;DHT22;6735;51.456;12.626;2022-10-31T16:30:53;15.30;86.50
13332;DHT22;6735;51.456;12.626;2022-10-31T16:33:31;15.30;87.10
13332;DHT22;6735;51.456;12.626;2022-10-31T16:35:59;15.20;86.80
13332;DHT22;6735;51.456;12.626;2022-10-31T16:38:26;15.20;86.80
13332;DHT22;6735;51.456;12.626;2022-10-31T16:40:52;15.10;87.20
13332;DHT22;6735;51.456;12.626;2022-10-31T16:43:19;15.20;87.40
13332;DHT22;6735;51.456;12.626;2022-10-31T16:45:47;15.10;87.10
13332;DHT22;6735;51.456;12.626;2022-10-31T16:48:21;15.10;87.30
13332;DHT22;6735;51.456;12.626;2022-10-31T16:50:49;15.10;87.60
13332;DHT22;6735;51.456;12.626;2022-10-31T16:53:16;15.00;87.60
13332;DHT22;6735;51.456;12.626;2022-10-31T16:55:54;15.00;87.60
13332;DHT22;6735;51.456;12.626;2022-10-31T16:58:31;15.00;87.50
13332;DHT22;6735;51.456;12.626;2022-10-31T17:00:58;14.90;87.40
13332;DHT22;6735;51.456;12.626;2022-10-31T17:03:25;14.90;87.90
13332;DHT22;6735;51.456;12.626;2022-10-31T17:05:50;14.90;87.90
13332;DHT22;6735;51.456;12.626;2022-10-31T17:08:16;14.90;87.90
13332;DHT22;6735;51.456;12.626;2022-10-31T17:10:43;14.90;88.00
13332;DHT22;6735;51.456;12.626;2022-10-31T17:13:20;14.90;88.00
13332;DHT22;6735;51.456;12.626;2022-10-31T17:15:48;14.90;87.90
13332;DHT22;6735;51.456;12.626;2022-10-31T17:18:15;14.90;88.00
13332;DHT22;6735;51.456;12.626;2022-10-31T17:20:42;14.90;88.00
13332;DHT22;6735;51.456;12.626;2022-10-31T17:23:10;14.90;88.20
13332;DHT22;6735;51.456;12.626;2022-10-31T17:25:36;14.80;88.00
13332;DHT22;6735;51.456;12.626;2022-10-31T17:28:02;14.80;88.00
13332;DHT22;6735;51.456;12.626;2022-10-31T17:30:27;14.80;88.00
13332;DHT22;6735;51.456;12.626;2022-10-31T17:32:53;14.80;88.20
13332;DHT22;6735;51.456;12.626;2022-10-31T17:35:20;14.80;88.10
13332;DHT22;6735;51.456;12.626;2022-10-31T17:37:46;14.70;88.00
13332;DHT22;6735;51.456;12.626;2022-10-31T17:40:15;14.70;87.80